createdAt,value
2023-02-15T00:01:58.801Z,78.04
2023-02-15T00:04:46.829Z,77.79
2023-02-15T00:07:15.980Z,77.95
2023-02-15T00:09:43.013Z,77.81
2023-02-15T00:12:10.989Z,77.79
2023-02-15T00:14:37.739Z,77.65
2023-02-15T00:17:04.484Z,77.76
2023-02-15T00:19:31.167Z,77.80
2023-02-15T00:21:58.132Z,77.76
2023-02-15T00:24:24.841Z,77.83
2023-02-15T00:26:51.737Z,78.15
2023-02-15T00:29:19.831Z,78.05
2023-02-15T00:31:47.159Z,77.93
2023-02-15T00:34:17.303Z,77.79
2023-02-15T00:36:44.772Z,77.87
2023-02-15T00:39:12.595Z,77.64
2023-02-15T00:41:39.420Z,77.78
2023-02-15T00:44:06.805Z,77.89
2023-02-15T00:46:33.776Z,77.61
2023-02-15T00:49:00.506Z,77.95
2023-02-15T00:51:27.853Z,77.63
2023-02-15T00:53:54.788Z,77.68
2023-02-15T00:56:21.695Z,77.64
2023-02-15T00:58:48.522Z,77.66
2023-02-15T01:01:21.330Z,77.84
2023-02-15T01:03:48.771Z,77.40
2023-02-15T01:06:17.286Z,77.82
2023-02-15T01:08:45.741Z,77.53
2023-02-15T01:11:15.257Z,77.63
2023-02-15T01:13:42.598Z,77.62
2023-02-15T01:16:09.425Z,77.68
2023-02-15T01:18:36.942Z,77.63
2023-02-15T01:21:19.818Z,77.75
2023-02-15T01:23:47.179Z,77.46
2023-02-15T01:26:14.640Z,77.12
2023-02-15T01:28:41.348Z,77.81
2023-02-15T01:31:13.760Z,77.34
2023-02-15T01:33:40.484Z,77.61
2023-02-15T01:36:07.433Z,77.46
2023-02-15T01:38:35.635Z,77.36
2023-02-15T01:41:21.094Z,77.08
2023-02-15T01:43:53.173Z,77.36
2023-02-15T01:46:24.004Z,77.05
2023-02-15T01:48:59.497Z,77.41
2023-02-15T01:51:30.583Z,77.57
2023-02-15T01:54:07.684Z,77.35
2023-02-15T01:56:36.990Z,77.43
2023-02-15T01:59:08.980Z,77.20
2023-02-15T02:01:36.326Z,77.09
2023-02-15T02:04:11.471Z,77.23
2023-02-15T02:06:40.050Z,77.11
2023-02-15T02:09:07.073Z,77.40
2023-02-15T02:11:34.961Z,77.57
2023-02-15T02:14:01.635Z,77.17
2023-02-15T02:17:00.625Z,77.15
2023-02-15T02:19:34.142Z,77.14
2023-02-15T02:22:12.631Z,77.50
2023-02-15T02:25:17.527Z,77.28
2023-02-15T02:28:11.602Z,77.38
2023-02-15T02:30:57.942Z,77.18
2023-02-15T02:33:58.583Z,77.29
2023-02-15T02:36:34.037Z,77.26
2023-02-15T02:39:07.437Z,77.51
2023-02-15T02:41:52.460Z,77.19
2023-02-15T02:44:33.013Z,77.24
2023-02-15T02:47:10.165Z,77.00
2023-02-15T02:49:40.055Z,77.20
2023-02-15T02:52:44.927Z,77.19
2023-02-15T02:55:23.649Z,77.26
2023-02-15T02:58:07.094Z,77.15
2023-02-15T03:00:38.446Z,77.07
2023-02-15T03:03:11.071Z,77.19
2023-02-15T03:05:42.504Z,76.93
2023-02-15T03:08:11.120Z,77.20
2023-02-15T03:10:41.576Z,77.28
2023-02-15T03:13:09.670Z,77.01
2023-02-15T03:15:58.955Z,77.39
2023-02-15T03:18:36.751Z,77.09
2023-02-15T03:21:05.169Z,77.30
2023-02-15T03:23:35.665Z,77.20
2023-02-15T03:26:09.192Z,77.21
2023-02-15T03:28:48.089Z,77.40
2023-02-15T03:31:17.527Z,76.79
2023-02-15T03:33:52.762Z,77.11
2023-02-15T03:36:26.323Z,77.34
2023-02-15T03:39:20.378Z,77.17
2023-02-15T03:42:10.233Z,76.90
2023-02-15T03:45:02.308Z,76.92
2023-02-15T03:47:36.449Z,77.03
2023-02-15T03:50:29.190Z,77.13
2023-02-15T03:52:58.385Z,77.32
2023-02-15T03:55:25.448Z,77.21
2023-02-15T03:58:11.608Z,77.14
2023-02-15T04:01:00.977Z,77.16
2023-02-15T04:03:40.545Z,77.23
2023-02-15T04:06:07.639Z,76.86
2023-02-15T04:09:12.682Z,76.77
2023-02-15T04:11:39.395Z,77.25
2023-02-15T04:14:25.983Z,77.12
2023-02-15T04:16:52.841Z,77.48
2023-02-15T04:19:38.551Z,77.25
2023-02-15T04:22:23.718Z,77.13
2023-02-15T04:25:08.662Z,77.20
2023-02-15T04:27:35.302Z,77.29
2023-02-15T04:30:02.162Z,77.10
2023-02-15T04:32:28.853Z,77.39
2023-02-15T04:34:55.490Z,77.24
2023-02-15T04:37:22.172Z,77.43
2023-02-15T04:39:48.924Z,77.31
2023-02-15T04:42:15.594Z,77.30
2023-02-15T04:44:42.391Z,77.41
2023-02-15T04:47:09.305Z,77.48
2023-02-15T04:49:36.059Z,77.07
2023-02-15T04:52:02.757Z,77.15
2023-02-15T04:54:29.422Z,77.30
2023-02-15T04:56:56.097Z,77.01
2023-02-15T04:59:22.778Z,77.25
2023-02-15T05:01:49.622Z,77.08
2023-02-15T05:04:16.380Z,76.95
2023-02-15T05:06:43.061Z,76.98
2023-02-15T05:09:09.736Z,77.30
2023-02-15T05:11:36.411Z,77.23
2023-02-15T05:14:03.117Z,76.88
2023-02-15T05:16:29.897Z,77.04
2023-02-15T05:18:56.678Z,76.85
2023-02-15T05:21:23.847Z,77.21
2023-02-15T05:23:50.563Z,77.11
2023-02-15T05:26:39.062Z,76.87
2023-02-15T05:29:06.329Z,76.94
2023-02-15T05:31:34.212Z,76.82
2023-02-15T05:34:01.057Z,76.91
2023-02-15T05:36:27.796Z,77.17
2023-02-15T05:38:54.442Z,77.24
2023-02-15T05:41:21.146Z,76.93
2023-02-15T05:43:48.068Z,77.13
2023-02-15T05:46:14.787Z,76.83
2023-02-15T05:48:41.572Z,76.90
2023-02-15T05:51:14.045Z,76.88
2023-02-15T05:53:41.794Z,76.99
2023-02-15T05:56:10.100Z,76.90
2023-02-15T05:58:39.637Z,76.94
2023-02-15T06:01:18.353Z,76.83
2023-02-15T06:03:46.366Z,76.92
2023-02-15T06:06:13.404Z,76.61
2023-02-15T06:08:40.349Z,76.90
2023-02-15T06:11:07.311Z,76.74
2023-02-15T06:13:37.229Z,76.78
2023-02-15T06:16:05.881Z,76.47
2023-02-15T06:18:32.711Z,76.70
2023-02-15T06:20:59.370Z,76.44
2023-02-15T06:23:26.028Z,76.71
2023-02-15T06:25:52.745Z,76.57
2023-02-15T06:28:19.636Z,76.42
2023-02-15T06:30:46.299Z,76.38
2023-02-15T06:33:13.033Z,76.26
2023-02-15T06:35:39.758Z,76.16
2023-02-15T06:38:06.430Z,76.29
2023-02-15T06:40:33.114Z,76.27
2023-02-15T06:42:59.808Z,76.29
2023-02-15T06:45:26.486Z,76.26
2023-02-15T06:47:53.156Z,76.38
2023-02-15T06:50:19.889Z,76.04
2023-02-15T06:52:46.578Z,76.17
2023-02-15T06:55:13.228Z,76.12
2023-02-15T06:57:39.882Z,76.01
2023-02-15T07:00:07.166Z,76.11
2023-02-15T07:02:34.281Z,75.87
2023-02-15T07:05:01.013Z,76.08
2023-02-15T07:07:27.742Z,75.90
2023-02-15T07:09:54.389Z,76.21
2023-02-15T07:12:39.831Z,76.04
2023-02-15T07:15:07.446Z,75.89
2023-02-15T07:17:36.247Z,76.08
2023-02-15T07:20:06.392Z,75.96
2023-02-15T07:22:35.156Z,76.31
2023-02-15T07:25:02.009Z,76.22
2023-02-15T07:27:28.857Z,76.14
2023-02-15T07:29:55.589Z,76.09
2023-02-15T07:32:22.285Z,76.15
2023-02-15T07:34:48.979Z,76.04
2023-02-15T07:37:15.820Z,75.94
2023-02-15T07:39:42.489Z,75.78
2023-02-15T07:42:09.166Z,75.49
2023-02-15T07:44:35.799Z,75.85
2023-02-15T07:47:02.464Z,76.07
2023-02-15T07:49:29.269Z,75.81
2023-02-15T07:51:55.928Z,75.58
2023-02-15T07:54:22.633Z,75.78
2023-02-15T07:56:49.382Z,75.93
2023-02-15T07:59:16.102Z,75.82
2023-02-15T08:01:42.880Z,75.77
2023-02-15T08:04:12.022Z,75.62
2023-02-15T08:06:39.367Z,75.87
2023-02-15T08:09:09.881Z,75.99
2023-02-15T08:11:38.440Z,75.69
2023-02-15T08:14:07.887Z,75.64
2023-02-15T08:16:45.053Z,75.62
2023-02-15T08:19:18.753Z,75.78
2023-02-15T08:21:48.970Z,75.38
2023-02-15T08:24:17.421Z,75.63
2023-02-15T08:26:46.196Z,75.82
2023-02-15T08:29:13.086Z,75.81
2023-02-15T08:31:42.090Z,75.48
2023-02-15T08:34:15.054Z,75.49
2023-02-15T08:36:42.352Z,75.67
2023-02-15T08:39:09.142Z,75.88
2023-02-15T08:41:37.578Z,75.85
2023-02-15T08:44:07.733Z,75.80
2023-02-15T08:46:36.962Z,75.54
2023-02-15T08:49:04.429Z,75.72
2023-02-15T08:51:33.657Z,75.61
2023-02-15T08:54:04.486Z,75.66
2023-02-15T08:56:34.421Z,75.80
2023-02-15T08:59:01.338Z,75.55
2023-02-15T09:01:33.815Z,75.56
2023-02-15T09:04:05.251Z,75.45
2023-02-15T09:06:32.912Z,75.75
2023-02-15T09:08:59.641Z,75.96
2023-02-15T09:11:28.912Z,75.54
2023-02-15T09:14:01.040Z,75.55
2023-02-15T09:16:30.874Z,75.56
2023-02-15T09:19:02.139Z,75.75
2023-02-15T09:21:29.824Z,75.47
2023-02-15T09:24:00.651Z,75.12
2023-02-15T09:26:29.691Z,75.50
2023-02-15T09:28:59.867Z,75.41
2023-02-15T09:31:29.066Z,75.25
2023-02-15T09:33:56.069Z,75.05
2023-02-15T09:36:28.320Z,75.15
2023-02-15T09:39:19.857Z,75.17
2023-02-15T09:42:22.728Z,75.16
2023-02-15T09:45:18.638Z,75.14
2023-02-15T09:47:48.602Z,75.15
2023-02-15T09:50:52.512Z,75.29
2023-02-15T09:53:24.799Z,75.07
2023-02-15T09:56:21.036Z,75.20
2023-02-15T09:59:15.439Z,75.05
2023-02-15T10:02:09.987Z,74.95
2023-02-15T10:05:12.352Z,74.70
2023-02-15T10:07:44.966Z,74.81
2023-02-15T10:10:24.381Z,74.85
2023-02-15T10:13:08.901Z,74.91
2023-02-15T10:16:00.553Z,74.72
2023-02-15T10:18:57.349Z,74.43
2023-02-15T10:21:40.399Z,74.40
2023-02-15T10:24:10.103Z,74.51
2023-02-15T10:26:48.022Z,74.44
2023-02-15T10:29:18.513Z,74.58
2023-02-15T10:31:54.278Z,74.47
2023-02-15T10:34:59.534Z,74.62
2023-02-15T10:37:45.163Z,74.42
2023-02-15T10:40:34.799Z,74.57
2023-02-15T10:43:15.406Z,74.53
2023-02-15T10:46:27.024Z,74.46
2023-02-15T10:48:59.822Z,74.49
2023-02-15T10:51:49.702Z,74.29
2023-02-15T10:54:47.481Z,74.49
2023-02-15T10:57:30.146Z,74.59
2023-02-15T11:00:23.791Z,74.45
2023-02-15T11:03:15.130Z,74.31
2023-02-15T11:05:58.824Z,74.66
2023-02-15T11:08:29.035Z,74.28
2023-02-15T11:11:03.078Z,74.48
2023-02-15T11:13:39.870Z,74.30
2023-02-15T11:16:14.153Z,74.59
2023-02-15T11:18:47.009Z,74.45
2023-02-15T11:21:33.595Z,74.56
2023-02-15T11:24:01.915Z,74.24
2023-02-15T11:26:35.567Z,74.46
2023-02-15T11:29:14.691Z,74.45
2023-02-15T11:31:47.219Z,74.45
2023-02-15T11:34:39.108Z,74.45
2023-02-15T11:37:16.790Z,74.56
2023-02-15T11:39:44.405Z,74.41
2023-02-15T11:42:16.501Z,74.29
2023-02-15T11:44:57.791Z,74.34
2023-02-15T11:47:24.514Z,74.27
2023-02-15T11:49:51.326Z,74.19
2023-02-15T11:52:19.596Z,74.37
2023-02-15T11:54:51.143Z,74.21
2023-02-15T11:57:38.997Z,74.46
2023-02-15T12:00:12.455Z,74.33
2023-02-15T12:02:43.621Z,74.29
2023-02-15T12:05:17.286Z,74.30
2023-02-15T12:08:04.997Z,74.19
2023-02-15T12:10:43.973Z,73.99
2023-02-15T12:13:16.377Z,74.23
2023-02-15T12:15:55.502Z,74.25
2023-02-15T12:18:37.277Z,74.04
2023-02-15T12:21:15.571Z,74.09
2023-02-15T12:23:49.378Z,74.43
2023-02-15T12:26:24.151Z,74.32
2023-02-15T12:28:53.048Z,74.29
2023-02-15T12:31:24.504Z,74.17
2023-02-15T12:33:59.176Z,74.37
2023-02-15T12:36:33.150Z,74.24
2023-02-15T12:39:21.728Z,74.32
2023-02-15T12:42:00.505Z,74.20
2023-02-15T12:44:38.290Z,74.32
2023-02-15T12:47:28.966Z,74.52
2023-02-15T12:50:34.718Z,74.34
2023-02-15T12:53:26.292Z,74.35
2023-02-15T12:56:12.285Z,74.39
2023-02-15T12:58:42.922Z,74.34
2023-02-15T13:01:16.978Z,74.53
2023-02-15T13:04:04.316Z,74.56
2023-02-15T13:06:36.644Z,74.43
2023-02-15T13:09:31.027Z,74.55
2023-02-15T13:12:09.945Z,74.54
2023-02-15T13:14:37.369Z,74.68
2023-02-15T13:17:08.471Z,74.73
2023-02-15T13:19:44.489Z,74.52
2023-02-15T13:22:18.605Z,74.56
2023-02-15T13:24:54.894Z,74.67
2023-02-15T13:27:25.654Z,74.86
2023-02-15T13:29:59.703Z,74.76
2023-02-15T13:32:33.893Z,74.81
2023-02-15T13:35:06.107Z,74.82
2023-02-15T13:38:00.879Z,74.96
2023-02-15T13:40:52.239Z,74.88
2023-02-15T13:43:21.899Z,74.79
2023-02-15T13:46:08.814Z,74.95
2023-02-15T13:48:52.982Z,74.83
2023-02-15T13:51:19.608Z,74.97
2023-02-15T13:54:23.685Z,75.01
2023-02-15T13:57:12.434Z,74.92
2023-02-15T13:59:57.426Z,74.90
2023-02-15T14:03:03.890Z,74.82
2023-02-15T14:05:35.821Z,74.79
2023-02-15T14:08:11.409Z,74.93
2023-02-15T14:10:43.767Z,74.95
2023-02-15T14:13:52.643Z,74.87
2023-02-15T14:16:35.450Z,74.92
2023-02-15T14:19:21.658Z,75.04
2023-02-15T14:21:55.753Z,74.96
2023-02-15T14:24:40.589Z,75.27
2023-02-15T14:27:47.661Z,75.09
2023-02-15T14:30:47.393Z,75.13
2023-02-15T14:33:39.485Z,75.09
2023-02-15T14:36:09.088Z,75.21
2023-02-15T14:38:47.717Z,75.07
2023-02-15T14:41:45.481Z,75.26
2023-02-15T14:44:46.968Z,75.05
2023-02-15T14:47:27.067Z,75.09
2023-02-15T14:49:53.742Z,75.38
2023-02-15T14:52:20.698Z,75.23
2023-02-15T14:54:47.326Z,75.16
2023-02-15T14:57:13.922Z,75.08
2023-02-15T15:00:01.466Z,75.14
2023-02-15T15:02:40.068Z,75.19
2023-02-15T15:05:21.181Z,75.28
2023-02-15T15:07:47.906Z,75.29
2023-02-15T15:10:17.178Z,75.34
2023-02-15T15:12:46.952Z,75.22
2023-02-15T15:15:29.606Z,75.52
2023-02-15T15:18:07.552Z,75.58
2023-02-15T15:20:52.355Z,75.24
2023-02-15T15:23:19.094Z,75.41
2023-02-15T15:26:12.626Z,75.57
2023-02-15T15:28:39.254Z,75.40
2023-02-15T15:31:26.037Z,75.65
2023-02-15T15:34:04.993Z,75.76
2023-02-15T15:36:53.153Z,75.73
2023-02-15T15:40:05.413Z,75.66
2023-02-15T15:42:53.022Z,75.83
2023-02-15T15:45:34.737Z,75.95
2023-02-15T15:48:19.480Z,75.54
2023-02-15T15:50:48.724Z,75.75
2023-02-15T15:53:23.354Z,76.02
2023-02-15T15:55:56.611Z,75.63
2023-02-15T15:58:25.001Z,75.65
2023-02-15T16:01:06.554Z,75.69
2023-02-15T16:03:33.288Z,75.88
2023-02-15T16:06:01.904Z,76.04
2023-02-15T16:08:38.090Z,75.73
2023-02-15T16:11:23.613Z,75.91
2023-02-15T16:13:50.714Z,76.13
2023-02-15T16:16:29.531Z,76.25
2023-02-15T16:19:00.727Z,75.90
2023-02-15T16:21:34.664Z,76.00
2023-02-15T16:24:26.010Z,76.00
2023-02-15T16:27:05.611Z,76.08
2023-02-15T16:29:34.316Z,76.26
2023-02-15T16:32:19.479Z,75.79
2023-02-15T16:34:58.736Z,76.21
2023-02-15T16:37:28.405Z,76.31
2023-02-15T16:39:56.646Z,76.02
2023-02-15T16:42:23.926Z,76.04
2023-02-15T16:45:15.605Z,75.95
2023-02-15T16:47:45.796Z,76.53
2023-02-15T16:50:21.811Z,76.40
2023-02-15T16:52:48.866Z,76.68
2023-02-15T16:55:23.877Z,76.09
2023-02-15T16:57:51.865Z,76.34
2023-02-15T17:00:25.941Z,76.31
2023-02-15T17:03:04.749Z,76.19
2023-02-15T17:05:40.565Z,76.37
2023-02-15T17:08:13.306Z,76.27
2023-02-15T17:10:45.960Z,76.16
2023-02-15T17:13:18.980Z,76.45
2023-02-15T17:16:05.829Z,76.35
2023-02-15T17:18:39.497Z,76.65
2023-02-15T17:21:26.871Z,76.50
2023-02-15T17:24:01.183Z,76.57
2023-02-15T17:26:37.963Z,76.61
2023-02-15T17:29:37.609Z,76.51
2023-02-15T17:32:06.295Z,76.44
2023-02-15T17:34:59.139Z,76.72
2023-02-15T17:38:01.219Z,76.25
2023-02-15T17:40:33.748Z,76.28
2023-02-15T17:43:00.559Z,76.47
2023-02-15T17:45:43.861Z,76.66
2023-02-15T17:48:34.700Z,76.80
2023-02-15T17:51:02.960Z,76.78
2023-02-15T17:53:30.110Z,76.80
2023-02-15T17:55:57.003Z,76.70
2023-02-15T17:58:23.915Z,76.62
2023-02-15T18:01:12.161Z,76.88
2023-02-15T18:04:09.149Z,76.80
2023-02-15T18:06:56.538Z,76.53
2023-02-15T18:09:42.661Z,76.35
2023-02-15T18:12:21.166Z,76.40
2023-02-15T18:14:48.000Z,76.89
2023-02-15T18:17:16.263Z,76.64
2023-02-15T18:19:44.906Z,76.44
2023-02-15T18:22:14.377Z,76.73
2023-02-15T18:24:41.496Z,76.39
2023-02-15T18:27:08.249Z,76.29
2023-02-15T18:29:34.902Z,76.38
2023-02-15T18:32:01.864Z,76.65
2023-02-15T18:34:32.527Z,76.74
2023-02-15T18:37:02.400Z,76.80
2023-02-15T18:39:31.986Z,76.66
2023-02-15T18:41:58.970Z,76.56
2023-02-15T18:44:26.534Z,76.44
2023-02-15T18:46:53.193Z,76.75
2023-02-15T18:49:19.961Z,76.56
2023-02-15T18:51:46.694Z,76.70
2023-02-15T18:54:31.647Z,76.90
2023-02-15T18:57:00.740Z,76.60
2023-02-15T18:59:30.466Z,76.82
2023-02-15T19:01:58.012Z,76.74
2023-02-15T19:04:25.869Z,76.73
2023-02-15T19:06:52.975Z,77.11
2023-02-15T19:09:22.562Z,76.64
2023-02-15T19:11:54.806Z,76.70
2023-02-15T19:14:29.725Z,76.87
2023-02-15T19:16:57.911Z,76.30
2023-02-15T19:19:24.693Z,76.94
2023-02-15T19:21:52.341Z,76.43
2023-02-15T19:24:28.290Z,76.51
2023-02-15T19:26:55.015Z,76.81
2023-02-15T19:29:27.977Z,76.91
2023-02-15T19:31:54.807Z,76.96
2023-02-15T19:34:21.761Z,76.57
2023-02-15T19:36:51.640Z,76.31
2023-02-15T19:39:30.750Z,76.61
2023-02-15T19:41:57.505Z,76.66
2023-02-15T19:44:24.630Z,76.70
2023-02-15T19:46:51.352Z,76.75
2023-02-15T19:49:18.177Z,76.76
2023-02-15T19:51:44.964Z,76.43
2023-02-15T19:54:18.958Z,76.53
2023-02-15T19:56:45.638Z,76.39
2023-02-15T19:59:33.071Z,76.52
2023-02-15T20:02:00.236Z,77.01
2023-02-15T20:04:27.360Z,76.79
2023-02-15T20:06:56.373Z,76.74
2023-02-15T20:09:33.861Z,76.69
2023-02-15T20:12:00.538Z,76.49
2023-02-15T20:14:27.824Z,76.48
2023-02-15T20:16:54.458Z,76.47
2023-02-15T20:19:21.163Z,76.49
2023-02-15T20:21:54.661Z,76.58
2023-02-15T20:24:22.713Z,76.51
2023-02-15T20:26:49.565Z,76.45
2023-02-15T20:29:18.864Z,76.52
2023-02-15T20:31:46.238Z,76.84
2023-02-15T20:34:13.109Z,76.35
2023-02-15T20:36:40.545Z,76.91
2023-02-15T20:39:20.592Z,76.30
2023-02-15T20:41:47.966Z,76.39
2023-02-15T20:44:14.730Z,76.47
2023-02-15T20:46:41.461Z,76.47
2023-02-15T20:49:08.184Z,76.24
2023-02-15T20:51:36.339Z,76.29
2023-02-15T20:54:11.667Z,76.31
2023-02-15T20:56:38.363Z,76.31
2023-02-15T20:59:19.203Z,76.51
2023-02-15T21:01:45.928Z,76.29
2023-02-15T21:04:18.762Z,76.39
2023-02-15T21:06:45.813Z,76.47
2023-02-15T21:09:14.578Z,76.75
2023-02-15T21:11:41.602Z,76.65
2023-02-15T21:14:21.376Z,76.25
2023-02-15T21:16:49.360Z,76.65
2023-02-15T21:19:19.781Z,76.43
2023-02-15T21:21:48.296Z,76.71
2023-02-15T21:24:19.309Z,76.45
2023-02-15T21:26:47.124Z,76.51
2023-02-15T21:29:28.300Z,76.34
2023-02-15T21:31:55.527Z,76.45
2023-02-15T21:34:22.461Z,76.40
2023-02-15T21:36:50.843Z,76.25
2023-02-15T21:39:28.519Z,76.54
2023-02-15T21:42:16.672Z,76.28
2023-02-15T21:45:01.900Z,76.67
2023-02-15T21:47:50.580Z,76.47
2023-02-15T21:50:39.121Z,76.64
2023-02-15T21:53:09.793Z,76.51
2023-02-15T21:55:36.742Z,76.61
2023-02-15T21:58:03.615Z,76.66
2023-02-15T22:00:31.134Z,76.42
2023-02-15T22:02:59.692Z,76.34
2023-02-15T22:05:31.809Z,76.68
2023-02-15T22:07:59.026Z,76.24
2023-02-15T22:10:30.488Z,76.54
2023-02-15T22:12:59.616Z,76.39
2023-02-15T22:15:33.362Z,76.42
2023-02-15T22:18:00.027Z,76.37
2023-02-15T22:20:26.690Z,76.52
2023-02-15T22:22:53.892Z,76.45
2023-02-15T22:25:23.354Z,76.71
2023-02-15T22:27:51.846Z,76.17
2023-02-15T22:30:25.410Z,76.77
2023-02-15T22:32:53.493Z,76.27
2023-02-15T22:35:31.948Z,76.40
2023-02-15T22:37:59.152Z,76.20
2023-02-15T22:40:36.866Z,76.41
2023-02-15T22:43:05.747Z,76.17
2023-02-15T22:45:35.724Z,76.40
2023-02-15T22:48:02.755Z,76.69
2023-02-15T22:50:32.313Z,76.52
2023-02-15T22:53:03.483Z,76.24
2023-02-15T22:55:33.697Z,76.34
2023-02-15T22:58:01.678Z,76.21
2023-02-15T23:00:31.987Z,76.61
2023-02-15T23:02:58.676Z,76.14
2023-02-15T23:05:28.825Z,76.51
2023-02-15T23:07:56.249Z,76.17
2023-02-15T23:10:26.058Z,76.47
2023-02-15T23:13:11.305Z,76.86
2023-02-15T23:15:38.420Z,76.48
2023-02-15T23:18:23.845Z,76.38
2023-02-15T23:21:02.370Z,76.21
2023-02-15T23:23:38.346Z,76.44
2023-02-15T23:26:11.172Z,76.70
2023-02-15T23:28:38.518Z,76.53
2023-02-15T23:31:20.954Z,76.76
2023-02-15T23:33:49.131Z,76.18
2023-02-15T23:36:25.381Z,76.86
2023-02-15T23:38:53.331Z,76.26
2023-02-15T23:41:25.194Z,76.44
2023-02-15T23:44:03.948Z,76.71
2023-02-15T23:46:40.381Z,76.54
2023-02-15T23:49:15.061Z,76.52
2023-02-15T23:51:47.574Z,76.62
2023-02-15T23:54:15.936Z,76.95
2023-02-15T23:56:44.539Z,76.24
2023-02-15T23:59:19.458Z,76.61
